sensor_id;sensor_type;location;lat;lon;timestamp;temperature;humidity
55828;DHT22;41758;51.992;5.890;2023-07-24T00:00:59;23.70;72.70
55828;DHT22;41758;51.992;5.890;2023-07-24T00:03:25;23.70;72.80
55828;DHT22;41758;51.992;5.890;2023-07-24T00:05:51;23.70;72.60
55828;DHT22;41758;51.992;5.890;2023-07-24T00:08:16;23.70;72.70
55828;DHT22;41758;51.992;5.890;2023-07-24T00:10:42;23.70;72.70
55828;DHT22;41758;51.992;5.890;2023-07-24T00:13:08;23.70;72.70
55828;DHT22;41758;51.992;5.890;2023-07-24T00:15:33;23.70;72.60
55828;DHT22;41758;51.992;5.890;2023-07-24T00:17:59;23.60;72.70
55828;DHT22;41758;51.992;5.890;2023-07-24T00:20:25;23.70;72.80
55828;DHT22;41758;51.992;5.890;2023-07-24T00:22:51;23.70;72.80
55828;DHT22;41758;51.992;5.890;2023-07-24T00:25:17;23.70;72.70
55828;DHT22;41758;51.992;5.890;2023-07-24T00:27:43;23.60;72.70
55828;DHT22;41758;51.992;5.890;2023-07-24T00:30:09;23.60;72.60
55828;DHT22;41758;51.992;5.890;2023-07-24T00:32:34;23.60;72.60
55828;DHT22;41758;51.992;5.890;2023-07-24T00:35:01;23.60;72.60
55828;DHT22;41758;51.992;5.890;2023-07-24T00:37:27;23.60;72.70
55828;DHT22;41758;51.992;5.890;2023-07-24T00:39:52;23.50;72.70
55828;DHT22;41758;51.992;5.890;2023-07-24T00:42:18;23.60;72.80
55828;DHT22;41758;51.992;5.890;2023-07-24T00:44:47;23.60;72.80
55828;DHT22;41758;51.992;5.890;2023-07-24T00:47:13;23.60;72.50
55828;DHT22;41758;51.992;5.890;2023-07-24T00:49:39;23.50;72.40
55828;DHT22;41758;51.992;5.890;2023-07-24T00:52:05;23.50;72.50
55828;DHT22;41758;51.992;5.890;2023-07-24T00:54:32;23.50;72.60
55828;DHT22;41758;51.992;5.890;2023-07-24T00:56:59;23.50;72.70
55828;DHT22;41758;51.992;5.890;2023-07-24T00:59:26;23.50;72.70
55828;DHT22;41758;51.992;5.890;2023-07-24T01:01:52;23.50;72.70
55828;DHT22;41758;51.992;5.890;2023-07-24T01:04:18;23.50;72.70
55828;DHT22;41758;51.992;5.890;2023-07-24T01:06:45;23.60;72.80
55828;DHT22;41758;51.992;5.890;2023-07-24T01:09:11;23.60;72.80
55828;DHT22;41758;51.992;5.890;2023-07-24T01:11:41;23.60;72.80
55828;DHT22;41758;51.992;5.890;2023-07-24T01:16:47;23.60;72.70
55828;DHT22;41758;51.992;5.890;2023-07-24T01:19:37;23.60;72.60
55828;DHT22;41758;51.992;5.890;2023-07-24T01:22:14;23.60;72.60
55828;DHT22;41758;51.992;5.890;2023-07-24T01:27:25;23.60;72.60
55828;DHT22;41758;51.992;5.890;2023-07-24T01:29:52;23.50;72.70
55828;DHT22;41758;51.992;5.890;2023-07-24T01:32:18;23.60;72.60
55828;DHT22;41758;51.992;5.890;2023-07-24T01:34:45;23.50;72.50
55828;DHT22;41758;51.992;5.890;2023-07-24T01:37:12;23.50;72.70
55828;DHT22;41758;51.992;5.890;2023-07-24T01:39:40;23.50;72.80
55828;DHT22;41758;51.992;5.890;2023-07-24T01:42:06;23.50;72.80
55828;DHT22;41758;51.992;5.890;2023-07-24T01:44:32;23.50;72.80
55828;DHT22;41758;51.992;5.890;2023-07-24T01:46:58;23.50;72.70
55828;DHT22;41758;51.992;5.890;2023-07-24T01:49:23;23.50;72.70
55828;DHT22;41758;51.992;5.890;2023-07-24T01:51:49;23.50;72.70
55828;DHT22;41758;51.992;5.890;2023-07-24T01:54:15;23.50;72.70
55828;DHT22;41758;51.992;5.890;2023-07-24T01:56:41;23.40;72.70
55828;DHT22;41758;51.992;5.890;2023-07-24T01:59:07;23.50;72.70
55828;DHT22;41758;51.992;5.890;2023-07-24T02:01:33;23.50;72.70
55828;DHT22;41758;51.992;5.890;2023-07-24T02:03:59;23.40;72.60
55828;DHT22;41758;51.992;5.890;2023-07-24T02:06:24;23.40;72.70
55828;DHT22;41758;51.992;5.890;2023-07-24T02:08:50;23.40;72.80
55828;DHT22;41758;51.992;5.890;2023-07-24T02:11:17;23.40;72.80
55828;DHT22;41758;51.992;5.890;2023-07-24T02:13:46;23.40;72.80
55828;DHT22;41758;51.992;5.890;2023-07-24T02:16:13;23.40;72.80
55828;DHT22;41758;51.992;5.890;2023-07-24T02:18:42;23.40;72.70
55828;DHT22;41758;51.992;5.890;2023-07-24T02:21:08;23.40;72.70
55828;DHT22;41758;51.992;5.890;2023-07-24T02:23:34;23.40;72.80
55828;DHT22;41758;51.992;5.890;2023-07-24T02:26:00;23.50;72.80
55828;DHT22;41758;51.992;5.890;2023-07-24T02:28:26;23.40;72.80
55828;DHT22;41758;51.992;5.890;2023-07-24T02:30:52;23.40;72.80
55828;DHT22;41758;51.992;5.890;2023-07-24T02:33:22;23.40;72.90
55828;DHT22;41758;51.992;5.890;2023-07-24T02:35:50;23.50;72.90
55828;DHT22;41758;51.992;5.890;2023-07-24T02:38:16;23.50;73.00
55828;DHT22;41758;51.992;5.890;2023-07-24T02:40:43;23.50;72.90
55828;DHT22;41758;51.992;5.890;2023-07-24T02:43:09;23.50;72.90
55828;DHT22;41758;51.992;5.890;2023-07-24T02:45:36;23.60;72.80
55828;DHT22;41758;51.992;5.890;2023-07-24T02:48:02;23.50;72.90
55828;DHT22;41758;51.992;5.890;2023-07-24T02:50:29;23.60;72.90
55828;DHT22;41758;51.992;5.890;2023-07-24T02:52:55;23.60;72.90
55828;DHT22;41758;51.992;5.890;2023-07-24T02:55:20;23.60;72.90
55828;DHT22;41758;51.992;5.890;2023-07-24T02:57:46;23.60;72.80
55828;DHT22;41758;51.992;5.890;2023-07-24T03:00:12;23.50;72.70
55828;DHT22;41758;51.992;5.890;2023-07-24T03:02:39;23.50;72.60
55828;DHT22;41758;51.992;5.890;2023-07-24T03:05:04;23.40;72.50
55828;DHT22;41758;51.992;5.890;2023-07-24T03:07:31;23.30;72.50
55828;DHT22;41758;51.992;5.890;2023-07-24T03:09:57;23.30;72.50
55828;DHT22;41758;51.992;5.890;2023-07-24T03:12:22;23.30;72.50
55828;DHT22;41758;51.992;5.890;2023-07-24T03:14:48;23.30;72.60
55828;DHT22;41758;51.992;5.890;2023-07-24T03:17:14;23.30;72.70
55828;DHT22;41758;51.992;5.890;2023-07-24T03:19:40;23.30;72.80
55828;DHT22;41758;51.992;5.890;2023-07-24T03:22:06;23.30;72.90
55828;DHT22;41758;51.992;5.890;2023-07-24T03:24:33;23.30;72.90
55828;DHT22;41758;51.992;5.890;2023-07-24T03:26:59;23.30;72.90
55828;DHT22;41758;51.992;5.890;2023-07-24T03:29:26;23.30;72.80
55828;DHT22;41758;51.992;5.890;2023-07-24T03:31:52;23.30;72.70
55828;DHT22;41758;51.992;5.890;2023-07-24T03:34:18;23.20;72.60
55828;DHT22;41758;51.992;5.890;2023-07-24T03:36:44;23.20;72.80
55828;DHT22;41758;51.992;5.890;2023-07-24T03:39:10;23.20;72.70
55828;DHT22;41758;51.992;5.890;2023-07-24T03:41:38;23.20;72.80
55828;DHT22;41758;51.992;5.890;2023-07-24T03:44:04;23.20;72.80
55828;DHT22;41758;51.992;5.890;2023-07-24T03:46:32;23.10;72.90
55828;DHT22;41758;51.992;5.890;2023-07-24T03:48:58;23.10;72.70
55828;DHT22;41758;51.992;5.890;2023-07-24T03:51:23;23.10;72.70
55828;DHT22;41758;51.992;5.890;2023-07-24T03:53:49;23.00;72.60
55828;DHT22;41758;51.992;5.890;2023-07-24T03:56:15;23.00;72.50
55828;DHT22;41758;51.992;5.890;2023-07-24T03:58:40;22.90;72.50
55828;DHT22;41758;51.992;5.890;2023-07-24T04:01:07;22.80;72.30
55828;DHT22;41758;51.992;5.890;2023-07-24T04:03:33;22.70;72.40
55828;DHT22;41758;51.992;5.890;2023-07-24T04:05:59;22.70;72.50
55828;DHT22;41758;51.992;5.890;2023-07-24T04:08:25;22.60;72.60
55828;DHT22;41758;51.992;5.890;2023-07-24T04:10:50;22.60;72.80
55828;DHT22;41758;51.992;5.890;2023-07-24T04:13:16;22.60;72.90
55828;DHT22;41758;51.992;5.890;2023-07-24T04:15:42;22.50;72.90
55828;DHT22;41758;51.992;5.890;2023-07-24T04:18:07;22.50;72.90
55828;DHT22;41758;51.992;5.890;2023-07-24T04:20:33;22.40;73.00
55828;DHT22;41758;51.992;5.890;2023-07-24T04:22:59;22.40;73.10
55828;DHT22;41758;51.992;5.890;2023-07-24T04:25:24;22.30;73.10
55828;DHT22;41758;51.992;5.890;2023-07-24T04:27:51;22.40;73.20
55828;DHT22;41758;51.992;5.890;2023-07-24T04:30:17;22.40;73.30
55828;DHT22;41758;51.992;5.890;2023-07-24T04:32:43;22.30;73.30
55828;DHT22;41758;51.992;5.890;2023-07-24T04:35:08;22.30;73.30
55828;DHT22;41758;51.992;5.890;2023-07-24T04:37:35;22.30;73.20
55828;DHT22;41758;51.992;5.890;2023-07-24T04:40:00;22.30;73.30
55828;DHT22;41758;51.992;5.890;2023-07-24T04:42:26;22.30;73.20
55828;DHT22;41758;51.992;5.890;2023-07-24T04:44:52;22.30;73.30
55828;DHT22;41758;51.992;5.890;2023-07-24T04:47:18;22.20;73.40
55828;DHT22;41758;51.992;5.890;2023-07-24T04:49:43;22.30;73.50
55828;DHT22;41758;51.992;5.890;2023-07-24T04:52:09;22.30;73.50
55828;DHT22;41758;51.992;5.890;2023-07-24T04:54:34;22.30;73.30
55828;DHT22;41758;51.992;5.890;2023-07-24T04:57:00;22.20;73.40
55828;DHT22;41758;51.992;5.890;2023-07-24T04:59:26;22.20;73.50
55828;DHT22;41758;51.992;5.890;2023-07-24T05:01:51;22.30;73.50
55828;DHT22;41758;51.992;5.890;2023-07-24T05:04:17;22.20;73.50
55828;DHT22;41758;51.992;5.890;2023-07-24T05:06:43;22.20;73.50
55828;DHT22;41758;51.992;5.890;2023-07-24T05:09:08;22.30;73.50
55828;DHT22;41758;51.992;5.890;2023-07-24T05:11:34;22.20;73.50
55828;DHT22;41758;51.992;5.890;2023-07-24T05:14:00;22.30;73.60
55828;DHT22;41758;51.992;5.890;2023-07-24T05:16:25;22.30;73.50
55828;DHT22;41758;51.992;5.890;2023-07-24T05:18:51;22.30;73.30
55828;DHT22;41758;51.992;5.890;2023-07-24T05:21:17;22.30;73.40
55828;DHT22;41758;51.992;5.890;2023-07-24T05:23:42;22.20;73.40
55828;DHT22;41758;51.992;5.890;2023-07-24T05:26:08;22.20;73.40
55828;DHT22;41758;51.992;5.890;2023-07-24T05:28:34;22.20;73.50
55828;DHT22;41758;51.992;5.890;2023-07-24T05:31:01;22.20;73.30
55828;DHT22;41758;51.992;5.890;2023-07-24T05:33:27;22.10;73.30
55828;DHT22;41758;51.992;5.890;2023-07-24T05:36:00;22.10;73.30
55828;DHT22;41758;51.992;5.890;2023-07-24T05:38:26;22.10;73.40
55828;DHT22;41758;51.992;5.890;2023-07-24T05:41:00;22.10;73.50
55828;DHT22;41758;51.992;5.890;2023-07-24T05:43:26;22.10;73.50
55828;DHT22;41758;51.992;5.890;2023-07-24T05:45:53;22.10;73.70
55828;DHT22;41758;51.992;5.890;2023-07-24T05:48:19;22.20;73.90
55828;DHT22;41758;51.992;5.890;2023-07-24T05:50:45;22.20;73.90
55828;DHT22;41758;51.992;5.890;2023-07-24T05:53:11;22.30;73.90
55828;DHT22;41758;51.992;5.890;2023-07-24T05:55:37;22.30;73.80
55828;DHT22;41758;51.992;5.890;2023-07-24T05:58:02;22.30;73.60
55828;DHT22;41758;51.992;5.890;2023-07-24T06:00:28;22.30;73.20
55828;DHT22;41758;51.992;5.890;2023-07-24T06:02:54;22.30;73.30
55828;DHT22;41758;51.992;5.890;2023-07-24T06:05:20;22.30;73.30
55828;DHT22;41758;51.992;5.890;2023-07-24T06:07:46;22.20;73.00
55828;DHT22;41758;51.992;5.890;2023-07-24T06:10:12;22.20;73.30
55828;DHT22;41758;51.992;5.890;2023-07-24T06:12:38;22.30;73.60
55828;DHT22;41758;51.992;5.890;2023-07-24T06:15:04;22.30;73.50
55828;DHT22;41758;51.992;5.890;2023-07-24T06:17:31;22.20;73.10
55828;DHT22;41758;51.992;5.890;2023-07-24T06:19:56;22.20;73.00
55828;DHT22;41758;51.992;5.890;2023-07-24T06:22:22;22.10;73.20
55828;DHT22;41758;51.992;5.890;2023-07-24T06:24:48;22.10;73.40
55828;DHT22;41758;51.992;5.890;2023-07-24T06:27:14;22.20;73.50
55828;DHT22;41758;51.992;5.890;2023-07-24T06:29:40;22.20;73.50
55828;DHT22;41758;51.992;5.890;2023-07-24T06:32:06;22.30;73.60
55828;DHT22;41758;51.992;5.890;2023-07-24T06:34:33;22.30;73.50
55828;DHT22;41758;51.992;5.890;2023-07-24T06:36:58;22.30;73.30
55828;DHT22;41758;51.992;5.890;2023-07-24T06:39:24;22.30;73.40
55828;DHT22;41758;51.992;5.890;2023-07-24T06:41:54;22.30;73.40
55828;DHT22;41758;51.992;5.890;2023-07-24T06:44:20;22.30;73.60
55828;DHT22;41758;51.992;5.890;2023-07-24T06:46:46;22.30;73.70
55828;DHT22;41758;51.992;5.890;2023-07-24T06:49:12;22.30;73.70
55828;DHT22;41758;51.992;5.890;2023-07-24T06:51:37;22.40;73.80
55828;DHT22;41758;51.992;5.890;2023-07-24T06:54:04;22.40;73.90
55828;DHT22;41758;51.992;5.890;2023-07-24T06:56:30;22.40;73.60
55828;DHT22;41758;51.992;5.890;2023-07-24T06:58:56;22.40;73.50
55828;DHT22;41758;51.992;5.890;2023-07-24T07:01:22;22.40;73.40
55828;DHT22;41758;51.992;5.890;2023-07-24T07:03:48;22.40;73.50
55828;DHT22;41758;51.992;5.890;2023-07-24T07:06:13;22.50;73.60
55828;DHT22;41758;51.992;5.890;2023-07-24T07:08:39;22.50;73.50
55828;DHT22;41758;51.992;5.890;2023-07-24T07:11:05;22.60;73.70
55828;DHT22;41758;51.992;5.890;2023-07-24T07:13:30;22.60;73.60
55828;DHT22;41758;51.992;5.890;2023-07-24T07:15:56;22.60;73.60
55828;DHT22;41758;51.992;5.890;2023-07-24T07:18:22;22.70;73.80
55828;DHT22;41758;51.992;5.890;2023-07-24T07:20:49;22.70;73.70
55828;DHT22;41758;51.992;5.890;2023-07-24T07:23:15;22.80;73.90
55828;DHT22;41758;51.992;5.890;2023-07-24T07:25:41;22.90;74.00
55828;DHT22;41758;51.992;5.890;2023-07-24T07:28:09;22.90;73.70
55828;DHT22;41758;51.992;5.890;2023-07-24T07:30:35;23.00;73.80
55828;DHT22;41758;51.992;5.890;2023-07-24T07:33:00;23.10;73.90
55828;DHT22;41758;51.992;5.890;2023-07-24T07:35:26;23.10;73.70
55828;DHT22;41758;51.992;5.890;2023-07-24T07:37:52;23.00;73.00
55828;DHT22;41758;51.992;5.890;2023-07-24T07:40:18;23.00;73.10
55828;DHT22;41758;51.992;5.890;2023-07-24T07:42:43;23.00;72.80
55828;DHT22;41758;51.992;5.890;2023-07-24T07:45:10;22.90;72.70
55828;DHT22;41758;51.992;5.890;2023-07-24T07:47:36;22.90;72.80
55828;DHT22;41758;51.992;5.890;2023-07-24T07:50:02;22.90;73.00
55828;DHT22;41758;51.992;5.890;2023-07-24T07:52:28;22.90;73.00
55828;DHT22;41758;51.992;5.890;2023-07-24T07:54:54;22.90;73.30
55828;DHT22;41758;51.992;5.890;2023-07-24T07:57:20;23.00;73.60
55828;DHT22;41758;51.992;5.890;2023-07-24T07:59:45;23.00;73.60
55828;DHT22;41758;51.992;5.890;2023-07-24T08:02:11;23.10;73.60
55828;DHT22;41758;51.992;5.890;2023-07-24T08:04:37;23.10;73.60
55828;DHT22;41758;51.992;5.890;2023-07-24T08:07:03;23.10;73.10
55828;DHT22;41758;51.992;5.890;2023-07-24T08:09:28;23.10;72.60
55828;DHT22;41758;51.992;5.890;2023-07-24T08:11:54;22.90;71.70
55828;DHT22;41758;51.992;5.890;2023-07-24T08:14:20;22.70;71.80
55828;DHT22;41758;51.992;5.890;2023-07-24T08:16:49;22.40;71.80
55828;DHT22;41758;51.992;5.890;2023-07-24T08:19:15;22.30;71.90
55828;DHT22;41758;51.992;5.890;2023-07-24T08:21:40;22.10;72.30
55828;DHT22;41758;51.992;5.890;2023-07-24T08:24:06;22.10;72.80
55828;DHT22;41758;51.992;5.890;2023-07-24T08:26:32;22.00;72.90
55828;DHT22;41758;51.992;5.890;2023-07-24T08:28:58;21.90;73.20
55828;DHT22;41758;51.992;5.890;2023-07-24T08:31:24;21.90;73.60
55828;DHT22;41758;51.992;5.890;2023-07-24T08:33:49;21.90;74.20
55828;DHT22;41758;51.992;5.890;2023-07-24T08:36:15;22.00;74.60
55828;DHT22;41758;51.992;5.890;2023-07-24T08:38:41;22.10;74.90
55828;DHT22;41758;51.992;5.890;2023-07-24T08:41:12;22.20;74.50
55828;DHT22;41758;51.992;5.890;2023-07-24T08:43:40;22.20;74.40
55828;DHT22;41758;51.992;5.890;2023-07-24T08:46:07;22.30;74.70
55828;DHT22;41758;51.992;5.890;2023-07-24T08:48:38;22.30;74.70
55828;DHT22;41758;51.992;5.890;2023-07-24T08:51:09;22.40;74.70
55828;DHT22;41758;51.992;5.890;2023-07-24T08:53:37;22.40;74.90
55828;DHT22;41758;51.992;5.890;2023-07-24T08:56:05;22.50;74.90
55828;DHT22;41758;51.992;5.890;2023-07-24T08:58:31;22.60;74.40
55828;DHT22;41758;51.992;5.890;2023-07-24T09:00:58;22.60;74.30
55828;DHT22;41758;51.992;5.890;2023-07-24T09:03:24;22.70;74.40
55828;DHT22;41758;51.992;5.890;2023-07-24T09:05:50;22.80;74.80
55828;DHT22;41758;51.992;5.890;2023-07-24T09:08:16;22.90;75.00
55828;DHT22;41758;51.992;5.890;2023-07-24T09:10:41;23.00;74.50
55828;DHT22;41758;51.992;5.890;2023-07-24T09:13:08;23.10;74.40
55828;DHT22;41758;51.992;5.890;2023-07-24T09:15:43;23.10;74.50
55828;DHT22;41758;51.992;5.890;2023-07-24T09:18:10;23.20;74.00
55828;DHT22;41758;51.992;5.890;2023-07-24T09:20:43;23.20;73.40
55828;DHT22;41758;51.992;5.890;2023-07-24T09:23:10;23.20;73.40
55828;DHT22;41758;51.992;5.890;2023-07-24T09:25:37;23.20;73.70
55828;DHT22;41758;51.992;5.890;2023-07-24T09:28:29;23.20;73.80
55828;DHT22;41758;51.992;5.890;2023-07-24T09:30:57;23.40;74.00
55828;DHT22;41758;51.992;5.890;2023-07-24T09:33:35;23.50;74.50
55828;DHT22;41758;51.992;5.890;2023-07-24T09:36:03;23.60;74.50
55828;DHT22;41758;51.992;5.890;2023-07-24T09:38:29;23.70;74.30
55828;DHT22;41758;51.992;5.890;2023-07-24T09:40:56;23.70;73.70
55828;DHT22;41758;51.992;5.890;2023-07-24T09:43:24;23.70;73.30
55828;DHT22;41758;51.992;5.890;2023-07-24T09:45:51;23.70;73.30
55828;DHT22;41758;51.992;5.890;2023-07-24T09:48:18;23.70;73.00
55828;DHT22;41758;51.992;5.890;2023-07-24T09:50:46;23.70;73.00
55828;DHT22;41758;51.992;5.890;2023-07-24T09:53:37;23.70;73.10
55828;DHT22;41758;51.992;5.890;2023-07-24T09:56:06;23.70;72.70
55828;DHT22;41758;51.992;5.890;2023-07-24T09:58:34;23.70;73.10
55828;DHT22;41758;51.992;5.890;2023-07-24T10:01:04;23.80;73.20
55828;DHT22;41758;51.992;5.890;2023-07-24T10:03:46;23.90;73.50
55828;DHT22;41758;51.992;5.890;2023-07-24T10:06:12;23.90;73.20
55828;DHT22;41758;51.992;5.890;2023-07-24T10:08:40;24.00;72.90
55828;DHT22;41758;51.992;5.890;2023-07-24T10:11:13;24.00;72.90
55828;DHT22;41758;51.992;5.890;2023-07-24T10:13:43;24.00;72.90
55828;DHT22;41758;51.992;5.890;2023-07-24T10:16:09;24.00;72.00
55828;DHT22;41758;51.992;5.890;2023-07-24T10:18:41;23.90;72.10
55828;DHT22;41758;51.992;5.890;2023-07-24T10:21:09;23.90;72.30
55828;DHT22;41758;51.992;5.890;2023-07-24T10:23:45;23.90;72.60
55828;DHT22;41758;51.992;5.890;2023-07-24T10:26:14;24.00;72.50
55828;DHT22;41758;51.992;5.890;2023-07-24T10:28:41;24.00;73.10
55828;DHT22;41758;51.992;5.890;2023-07-24T10:31:19;24.20;73.30
55828;DHT22;41758;51.992;5.890;2023-07-24T10:33:45;24.30;73.30
55828;DHT22;41758;51.992;5.890;2023-07-24T10:36:11;24.30;73.10
55828;DHT22;41758;51.992;5.890;2023-07-24T10:38:42;24.40;72.70
55828;DHT22;41758;51.992;5.890;2023-07-24T10:41:10;24.40;72.60
55828;DHT22;41758;51.992;5.890;2023-07-24T10:43:51;24.40;72.80
55828;DHT22;41758;51.992;5.890;2023-07-24T10:46:19;24.40;71.70
55828;DHT22;41758;51.992;5.890;2023-07-24T10:48:49;24.40;71.80
55828;DHT22;41758;51.992;5.890;2023-07-24T10:51:15;24.30;71.60
55828;DHT22;41758;51.992;5.890;2023-07-24T10:53:47;24.30;71.90
55828;DHT22;41758;51.992;5.890;2023-07-24T10:56:13;24.40;72.20
55828;DHT22;41758;51.992;5.890;2023-07-24T10:58:39;24.40;72.20
55828;DHT22;41758;51.992;5.890;2023-07-24T11:01:06;24.40;72.40
55828;DHT22;41758;51.992;5.890;2023-07-24T11:03:35;24.40;71.50
55828;DHT22;41758;51.992;5.890;2023-07-24T11:06:02;24.30;71.20
55828;DHT22;41758;51.992;5.890;2023-07-24T11:08:28;24.30;71.30
55828;DHT22;41758;51.992;5.890;2023-07-24T11:10:57;24.20;71.60
55828;DHT22;41758;51.992;5.890;2023-07-24T11:13:27;24.30;71.90
55828;DHT22;41758;51.992;5.890;2023-07-24T11:15:54;24.30;72.00
55828;DHT22;41758;51.992;5.890;2023-07-24T11:18:21;24.40;72.50
55828;DHT22;41758;51.992;5.890;2023-07-24T11:20:53;24.50;72.90
55828;DHT22;41758;51.992;5.890;2023-07-24T11:23:18;24.70;73.00
55828;DHT22;41758;51.992;5.890;2023-07-24T11:25:44;24.80;72.90
55828;DHT22;41758;51.992;5.890;2023-07-24T11:28:11;25.00;72.70
55828;DHT22;41758;51.992;5.890;2023-07-24T11:30:38;25.10;72.50
55828;DHT22;41758;51.992;5.890;2023-07-24T11:33:08;25.10;72.10
55828;DHT22;41758;51.992;5.890;2023-07-24T11:35:35;25.20;71.70
55828;DHT22;41758;51.992;5.890;2023-07-24T11:38:01;25.20;71.30
55828;DHT22;41758;51.992;5.890;2023-07-24T11:40:54;25.10;70.40
55828;DHT22;41758;51.992;5.890;2023-07-24T11:43:21;25.00;70.30
55828;DHT22;41758;51.992;5.890;2023-07-24T11:45:48;24.90;70.90
55828;DHT22;41758;51.992;5.890;2023-07-24T11:48:17;24.90;70.90
55828;DHT22;41758;51.992;5.890;2023-07-24T11:50:45;24.90;70.90
55828;DHT22;41758;51.992;5.890;2023-07-24T11:53:31;25.00;71.60
55828;DHT22;41758;51.992;5.890;2023-07-24T11:55:58;25.10;71.90
55828;DHT22;41758;51.992;5.890;2023-07-24T11:58:30;25.30;72.30
55828;DHT22;41758;51.992;5.890;2023-07-24T12:00:56;25.40;71.90
55828;DHT22;41758;51.992;5.890;2023-07-24T12:03:24;25.40;70.80
55828;DHT22;41758;51.992;5.890;2023-07-24T12:05:50;25.40;69.90
55828;DHT22;41758;51.992;5.890;2023-07-24T12:08:17;25.40;70.00
55828;DHT22;41758;51.992;5.890;2023-07-24T12:10:44;25.40;70.50
55828;DHT22;41758;51.992;5.890;2023-07-24T12:13:10;25.50;71.20
55828;DHT22;41758;51.992;5.890;2023-07-24T12:15:36;25.70;71.30
55828;DHT22;41758;51.992;5.890;2023-07-24T12:18:04;25.90;71.70
55828;DHT22;41758;51.992;5.890;2023-07-24T12:20:30;26.00;70.60
55828;DHT22;41758;51.992;5.890;2023-07-24T12:22:57;26.10;71.00
55828;DHT22;41758;51.992;5.890;2023-07-24T12:25:23;26.40;71.40
55828;DHT22;41758;51.992;5.890;2023-07-24T12:27:49;26.70;71.70
55828;DHT22;41758;51.992;5.890;2023-07-24T12:30:15;27.10;70.70
55828;DHT22;41758;51.992;5.890;2023-07-24T12:32:41;27.20;71.20
55828;DHT22;41758;51.992;5.890;2023-07-24T12:35:07;27.20;69.90
55828;DHT22;41758;51.992;5.890;2023-07-24T12:37:33;27.20;70.00
55828;DHT22;41758;51.992;5.890;2023-07-24T12:39:59;27.10;69.90
55828;DHT22;41758;51.992;5.890;2023-07-24T12:42:25;27.00;70.20
55828;DHT22;41758;51.992;5.890;2023-07-24T12:44:52;26.80;69.90
55828;DHT22;41758;51.992;5.890;2023-07-24T12:47:17;26.60;70.20
55828;DHT22;41758;51.992;5.890;2023-07-24T12:49:43;26.50;70.90
55828;DHT22;41758;51.992;5.890;2023-07-24T12:52:10;26.60;71.10
55828;DHT22;41758;51.992;5.890;2023-07-24T12:54:36;26.70;71.90
55828;DHT22;41758;51.992;5.890;2023-07-24T12:57:02;26.80;72.50
55828;DHT22;41758;51.992;5.890;2023-07-24T12:59:28;26.90;72.70
55828;DHT22;41758;51.992;5.890;2023-07-24T13:01:54;27.20;73.20
55828;DHT22;41758;51.992;5.890;2023-07-24T13:04:20;27.50;73.40
55828;DHT22;41758;51.992;5.890;2023-07-24T13:06:46;27.60;72.10
55828;DHT22;41758;51.992;5.890;2023-07-24T13:09:12;27.80;72.20
55828;DHT22;41758;51.992;5.890;2023-07-24T13:11:38;28.00;71.30
55828;DHT22;41758;51.992;5.890;2023-07-24T13:14:03;28.10;71.90
55828;DHT22;41758;51.992;5.890;2023-07-24T13:16:29;28.30;71.00
55828;DHT22;41758;51.992;5.890;2023-07-24T13:18:55;28.40;68.50
55828;DHT22;41758;51.992;5.890;2023-07-24T13:21:21;28.50;68.60
55828;DHT22;41758;51.992;5.890;2023-07-24T13:23:46;28.70;69.70
55828;DHT22;41758;51.992;5.890;2023-07-24T13:26:13;28.90;70.40
55828;DHT22;41758;51.992;5.890;2023-07-24T13:28:39;29.10;70.20
55828;DHT22;41758;51.992;5.890;2023-07-24T13:31:15;29.30;69.40
55828;DHT22;41758;51.992;5.890;2023-07-24T13:33:41;29.40;69.70
55828;DHT22;41758;51.992;5.890;2023-07-24T13:36:07;29.50;65.80
55828;DHT22;41758;51.992;5.890;2023-07-24T13:38:33;29.40;63.80
55828;DHT22;41758;51.992;5.890;2023-07-24T13:40:59;29.40;65.30
55828;DHT22;41758;51.992;5.890;2023-07-24T13:43:25;29.40;66.90
55828;DHT22;41758;51.992;5.890;2023-07-24T13:45:51;29.60;68.00
55828;DHT22;41758;51.992;5.890;2023-07-24T13:48:16;29.80;66.10
55828;DHT22;41758;51.992;5.890;2023-07-24T13:50:42;29.80;67.10
55828;DHT22;41758;51.992;5.890;2023-07-24T13:53:08;30.10;68.30
55828;DHT22;41758;51.992;5.890;2023-07-24T13:55:33;30.40;66.80
55828;DHT22;41758;51.992;5.890;2023-07-24T13:57:59;30.60;67.60
55828;DHT22;41758;51.992;5.890;2023-07-24T14:00:25;30.90;67.40
55828;DHT22;41758;51.992;5.890;2023-07-24T14:02:51;31.00;67.20
55828;DHT22;41758;51.992;5.890;2023-07-24T14:05:17;30.90;66.30
55828;DHT22;41758;51.992;5.890;2023-07-24T14:07:43;31.00;65.90
55828;DHT22;41758;51.992;5.890;2023-07-24T14:10:10;31.10;64.90
55828;DHT22;41758;51.992;5.890;2023-07-24T14:12:36;31.40;66.00
55828;DHT22;41758;51.992;5.890;2023-07-24T14:15:02;31.60;65.10
55828;DHT22;41758;51.992;5.890;2023-07-24T14:17:28;31.60;65.10
55828;DHT22;41758;51.992;5.890;2023-07-24T14:19:54;31.70;65.70
55828;DHT22;41758;51.992;5.890;2023-07-24T14:22:20;31.70;64.70
55828;DHT22;41758;51.992;5.890;2023-07-24T14:24:46;31.50;64.60
55828;DHT22;41758;51.992;5.890;2023-07-24T14:27:15;31.20;63.00
55828;DHT22;41758;51.992;5.890;2023-07-24T14:29:41;30.70;62.20
55828;DHT22;41758;51.992;5.890;2023-07-24T14:32:07;29.80;59.70
55828;DHT22;41758;51.992;5.890;2023-07-24T14:34:33;28.70;56.50
55828;DHT22;41758;51.992;5.890;2023-07-24T14:36:59;27.50;57.60
55828;DHT22;41758;51.992;5.890;2023-07-24T14:39:24;26.50;59.00
55828;DHT22;41758;51.992;5.890;2023-07-24T14:41:51;25.70;61.40
55828;DHT22;41758;51.992;5.890;2023-07-24T14:44:17;25.10;63.40
55828;DHT22;41758;51.992;5.890;2023-07-24T14:46:42;24.70;65.30
55828;DHT22;41758;51.992;5.890;2023-07-24T14:49:08;24.40;66.60
55828;DHT22;41758;51.992;5.890;2023-07-24T14:51:34;24.30;67.50
55828;DHT22;41758;51.992;5.890;2023-07-24T14:53:59;24.10;68.20
55828;DHT22;41758;51.992;5.890;2023-07-24T14:56:25;23.90;68.50
55828;DHT22;41758;51.992;5.890;2023-07-24T14:58:51;23.80;68.80
55828;DHT22;41758;51.992;5.890;2023-07-24T15:01:17;23.70;69.00
55828;DHT22;41758;51.992;5.890;2023-07-24T15:03:42;23.60;69.30
55828;DHT22;41758;51.992;5.890;2023-07-24T15:06:08;23.40;69.20
55828;DHT22;41758;51.992;5.890;2023-07-24T15:08:34;23.40;69.80
55828;DHT22;41758;51.992;5.890;2023-07-24T15:10:59;23.30;70.20
55828;DHT22;41758;51.992;5.890;2023-07-24T15:13:25;23.30;70.60
55828;DHT22;41758;51.992;5.890;2023-07-24T15:15:51;23.30;70.80
55828;DHT22;41758;51.992;5.890;2023-07-24T15:18:17;23.10;70.90
55828;DHT22;41758;51.992;5.890;2023-07-24T15:20:43;23.10;71.20
55828;DHT22;41758;51.992;5.890;2023-07-24T15:23:09;23.10;71.30
55828;DHT22;41758;51.992;5.890;2023-07-24T15:25:35;23.10;71.60
55828;DHT22;41758;51.992;5.890;2023-07-24T15:28:00;23.10;72.30
55828;DHT22;41758;51.992;5.890;2023-07-24T15:30:26;23.20;72.90
55828;DHT22;41758;51.992;5.890;2023-07-24T15:32:52;23.40;73.10